Time;durP1;ratioP1;P1;durP2;ratioP2;P2;SDS_P1;SDS_P2;PMS_P1;PMS_P2;Temp;Humidity;BMP_temperature;BMP_pressure;BME280_temperature;BME280_humidity;BME280_pressure;Samples;Min_cycle;Max_cycle;Signal;HPM_P1;HPM_P2
2022/06/18 00:01:00;;;;;;;3.57;3.27;;;22.20;54.30;;;24.70;41.60;101611.47;5096311;28;20208;-60
2022/06/18 00:03:27;;;;;;;3.03;2.73;;;22.20;54.40;;;24.65;42.07;101608.72;5095418;28;20185;-61
2022/06/18 00:05:57;;;;;;;2.80;2.60;;;22.20;54.50;;;24.63;42.33;101600.03;5095349;28;20189;-61
2022/06/18 00:08:53;;;;;;;2.87;2.67;;;22.20;54.60;;;24.57;41.94;101609.13;5082458;28;20577;-62
2022/06/18 00:14:07;;;;;;;3.77;2.80;;;22.10;54.80;;;24.48;42.39;101591.75;5095098;28;20195;-61
2022/06/18 00:16:36;;;;;;;4.43;2.87;;;22.10;54.90;;;24.46;42.49;101591.19;5095844;28;20557;-61
2022/06/18 00:19:03;;;;;;;5.17;2.70;;;22.00;54.80;;;24.42;42.74;101588.16;5095205;28;20192;-61
2022/06/18 00:21:31;;;;;;;3.40;3.10;;;22.00;55.00;;;24.40;42.25;101587.59;5095099;28;20220;-61
2022/06/18 00:24:00;;;;;;;3.20;3.00;;;22.00;55.00;;;24.40;42.58;101586.75;5093767;28;20188;-61
2022/06/18 00:26:27;;;;;;;5.10;2.70;;;21.90;55.00;;;24.41;42.32;101585.72;5093966;28;20686;-61
2022/06/18 00:28:55;;;;;;;2.90;2.70;;;21.90;55.00;;;24.43;42.37;101580.91;5111557;28;20192;-61
2022/06/18 00:31:22;;;;;;;4.67;2.83;;;21.90;55.10;;;24.41;42.39;101580.34;5113254;28;20218;-59
2022/06/18 00:33:49;;;;;;;3.30;2.30;;;21.90;55.30;;;24.38;42.50;101576.25;5113920;28;20658;-60
2022/06/18 00:36:18;;;;;;;3.03;2.80;;;21.90;55.30;;;24.36;42.83;101578.38;5113626;28;20212;-59
2022/06/18 00:38:48;;;;;;;2.73;2.53;;;21.80;55.20;;;24.34;42.59;101569.72;5112478;28;20198;-61
2022/06/18 00:41:22;;;;;;;2.70;2.50;;;21.80;55.20;;;24.34;42.81;101568.91;5113866;28;20204;-60
2022/06/18 00:43:59;;;;;;;3.53;3.20;;;21.80;55.20;;;24.35;42.72;101575.91;5115626;28;20213;-61
2022/06/18 00:46:37;;;;;;;2.43;2.33;;;21.80;55.30;;;24.34;42.58;101566.22;5115405;28;20183;-60
2022/06/18 00:49:15;;;;;;;3.47;2.80;;;21.80;55.30;;;24.31;42.78;101558.63;5114475;28;20199;-60
2022/06/18 00:51:54;;;;;;;3.30;3.00;;;21.80;55.30;;;24.30;42.55;101554.28;5114124;28;20298;-60
2022/06/18 00:54:54;;;;;;;3.37;3.00;;;21.80;55.30;;;24.28;42.51;101551.03;5091711;28;20606;-60
2022/06/18 00:57:31;;;;;;;3.40;3.10;;;21.80;55.40;;;24.23;42.67;101549.91;5111613;28;20289;-59
2022/06/18 01:00:06;;;;;;;2.77;2.57;;;21.70;55.30;;;24.21;42.76;101546.66;5114496;28;20555;-59
2022/06/18 01:02:39;;;;;;;2.80;2.60;;;21.70;55.30;;;24.20;42.60;101544.19;5113594;28;20213;-60
2022/06/18 01:05:20;;;;;;;3.20;2.73;;;21.70;55.30;;;24.17;42.38;101542.81;5113825;28;20210;-61
2022/06/18 01:07:54;;;;;;;2.53;2.33;;;21.70;55.30;;;24.19;42.56;101540.69;5113651;28;20191;-63
2022/06/18 01:10:32;;;;;;;4.20;3.03;;;21.70;55.90;;;24.17;42.50;101542.81;5114286;28;20223;-61
2022/06/18 01:13:07;;;;;;;3.00;2.80;;;21.70;55.30;;;24.16;42.61;101538.47;5104289;28;20193;-62
2022/06/18 01:15:35;;;;;;;2.27;2.10;;;21.70;55.30;;;24.18;42.59;101539.06;5093553;28;20226;-61
2022/06/18 01:18:05;;;;;;;2.97;2.77;;;21.60;55.10;;;24.17;42.76;101529.38;5093538;28;20207;-61
2022/06/18 01:20:42;;;;;;;4.67;2.73;;;21.70;55.30;;;24.12;42.47;101529.28;5093275;28;20189;-61
2022/06/18 01:23:21;;;;;;;5.40;2.97;;;21.60;55.20;;;24.11;42.42;101527.63;5093427;28;20189;-60
2022/06/18 01:25:54;;;;;;;2.97;2.63;;;21.60;55.10;;;24.14;42.45;101527.16;5093730;28;20188;-61
2022/06/18 01:28:22;;;;;;;3.13;2.93;;;21.60;55.00;;;24.15;42.26;101527.97;5095319;28;20263;-60
2022/06/18 01:30:49;;;;;;;3.37;3.07;;;21.60;55.00;;;24.15;42.37;101523.38;5093263;28;20208;-63
2022/06/18 01:33:18;;;;;;;4.70;2.87;;;21.60;55.00;;;24.15;42.21;101507.25;5093263;28;20264;-61
2022/06/18 01:35:50;;;;;;;3.13;2.83;;;21.60;55.00;;;24.14;42.08;101512.88;5093472;28;20191;-61
2022/06/18 01:38:20;;;;;;;3.80;3.03;;;21.60;54.90;;;24.13;42.55;101514.75;5093108;28;20243;-61
2022/06/18 01:41:49;;;;;;;4.03;3.67;;;21.60;55.00;;;24.10;42.35;101514.44;5093448;28;20292;-63
2022/06/18 01:43:48;;;;;;;6.03;4.00;;;21.60;54.90;;;24.09;42.23;101508.22;5094364;28;20271;-60
2022/06/18 01:46:16;;;;;;;3.67;3.37;;;21.60;54.80;;;24.10;42.32;101509.06;5111539;28;20678;-61
2022/06/18 01:48:49;;;;;;;4.70;3.13;;;21.60;54.80;;;24.10;42.39;101504.47;5113444;28;20188;-60
2022/06/18 01:51:23;;;;;;;3.87;3.50;;;21.60;54.80;;;24.09;42.15;101502.84;5112921;28;20243;-61
2022/06/18 01:53:58;;;;;;;5.17;3.47;;;21.60;54.80;;;24.07;41.98;101498.78;5111946;28;20188;-61
2022/06/18 01:56:35;;;;;;;5.03;3.87;;;21.50;54.70;;;24.04;42.09;101501.91;5113418;28;20548;-61
2022/06/18 01:59:10;;;;;;;3.70;3.40;;;21.60;54.80;;;24.04;41.84;101491.97;5112196;28;20227;-61
2022/06/18 02:01:43;;;;;;;4.73;3.83;;;21.50;54.70;;;24.02;42.31;101488.72;5111276;28;20207;-61
2022/06/18 02:04:13;;;;;;;3.80;3.33;;;21.60;54.80;;;24.01;42.36;101489.75;5113410;28;20676;-59
2022/06/18 02:06:49;;;;;;;3.60;3.20;;;21.60;54.90;;;23.97;42.38;101487.81;5112975;28;20237;-59
2022/06/18 02:09:34;;;;;;;5.67;3.63;;;21.50;54.70;;;23.92;42.50;101485.84;5113177;28;20263;-62
2022/06/18 02:12:09;;;;;;;4.50;3.60;;;21.50;54.70;;;23.93;42.29;101482.13;5112743;28;20700;-61
2022/06/18 02:14:42;;;;;;;3.67;3.33;;;21.50;54.70;;;23.90;42.32;101482.59;5116753;28;20198;-62
2022/06/18 02:17:17;;;;;;;3.27;2.97;;;21.50;54.60;;;23.90;42.46;101482.59;5115021;28;20207;-61
2022/06/18 02:19:53;;;;;;;4.93;3.13;;;21.50;54.60;;;23.90;42.28;101479.91;5115848;28;20203;-61
2022/06/18 02:22:29;;;;;;;4.73;3.50;;;21.50;54.70;;;23.91;42.27;101473.47;5116692;28;20290;-60
2022/06/18 02:24:57;;;;;;;5.13;3.37;;;21.50;54.60;;;23.91;42.35;101473.47;5116445;28;20196;-61
2022/06/18 02:27:26;;;;;;;3.40;3.10;;;21.50;54.60;;;23.95;42.40;101473.78;5116492;28;20188;-61
2022/06/18 02:29:54;;;;;;;3.57;3.27;;;21.50;54.50;;;23.95;42.29;101465.72;5116565;28;20195;-62
2022/06/18 02:32:37;;;;;;;3.57;3.27;;;21.50;54.50;;;23.94;41.99;101462.22;5114337;28;20285;-60
2022/06/18 02:35:12;;;;;;;4.03;2.90;;;21.50;54.50;;;23.96;42.05;101465.47;5117527;28;20273;-61
2022/06/18 02:37:40;;;;;;;3.17;2.83;;;21.50;54.50;;;23.98;41.79;101462.56;5123767;28;20207;-61
2022/06/18 02:40:18;;;;;;;3.63;3.00;;;21.50;54.50;;;23.99;42.05;101461.47;5133524;28;20243;-60
2022/06/18 02:42:49;;;;;;;3.00;2.80;;;21.50;54.50;;;23.98;41.94;101460.69;5133424;28;20275;-60
2022/06/18 02:45:21;;;;;;;3.50;3.20;;;21.60;54.50;;;23.96;42.05;101460.09;5127126;28;20255;-60
2022/06/18 02:47:50;;;;;;;4.30;3.27;;;21.50;54.40;;;23.89;42.22;101454.06;5109741;28;20180;-65
2022/06/18 02:50:22;;;;;;;6.80;3.10;;;21.50;54.50;;;23.85;42.35;101452.09;5096861;28;20279;-61
2022/06/18 02:52:55;;;;;;;4.00;3.43;;;21.50;54.50;;;23.88;42.39;101457.81;5095931;28;20228;-59
2022/06/18 02:55:30;;;;;;;3.47;3.17;;;21.50;54.50;;;23.90;42.21;101450.31;5111695;28;20577;-60
2022/06/18 02:58:07;;;;;;;4.30;3.10;;;21.50;54.50;;;23.86;42.47;101443.81;5095487;28;20216;-62
2022/06/18 03:00:38;;;;;;;3.87;3.30;;;21.50;54.60;;;23.84;42.58;101440.56;5095189;28;20192;-61
2022/06/18 03:03:08;;;;;;;4.87;3.10;;;21.50;54.60;;;23.80;42.61;101439.41;5095367;28;20185;-62
2022/06/18 03:05:35;;;;;;;4.13;2.90;;;21.50;54.70;;;23.79;42.81;101447.72;5095600;28;20201;-59
2022/06/18 03:08:04;;;;;;;3.53;3.20;;;21.40;54.60;;;23.81;42.52;101451.78;5095283;28;20185;-61
2022/06/18 03:13:19;;;;;;;3.07;2.73;;;21.40;54.80;;;23.84;42.54;101445.94;5095660;28;20181;-59
2022/06/18 03:15:48;;;;;;;3.47;3.17;;;21.40;54.80;;;23.86;42.49;101451.88;5095414;28;20199;-61
2022/06/18 03:18:19;;;;;;;3.60;3.30;;;21.40;54.90;;;23.86;42.71;101454.56;5095083;28;20212;-60
2022/06/18 03:20:59;;;;;;;3.77;3.47;;;21.40;54.90;;;23.78;42.57;101446.91;5110946;28;20212;-59
2022/06/18 03:23:27;;;;;;;4.53;3.10;;;21.40;55.00;;;23.78;43.00;101454.97;5115057;28;20207;-60
2022/06/18 03:25:55;;;;;;;3.07;2.83;;;21.40;55.00;;;23.79;42.69;101453.91;5115973;28;20216;-59
2022/06/18 03:28:27;;;;;;;5.63;2.97;;;21.40;55.00;;;23.83;42.68;101459.59;5115852;28;20183;-61
2022/06/18 03:30:54;;;;;;;3.57;3.00;;;21.40;55.10;;;23.83;42.64;101460.44;5115844;28;20286;-61
2022/06/18 03:33:22;;;;;;;4.50;3.07;;;21.40;55.10;;;23.85;42.63;101463.69;5115661;28;20202;-59
2022/06/18 03:35:52;;;;;;;4.07;2.97;;;21.40;55.10;;;23.85;42.61;101463.69;5114622;28;20198;-59
2022/06/18 03:38:23;;;;;;;3.17;2.90;;;21.40;55.20;;;23.82;42.63;101453.41;5115510;28;20272;-61
2022/06/18 03:40:51;;;;;;;7.57;3.50;;;21.40;55.20;;;23.82;42.74;101456.09;5114733;28;20295;-61
2022/06/18 03:43:20;;;;;;;3.43;3.13;;;21.40;55.20;;;23.81;42.65;101459.03;5115970;28;20188;-61
2022/06/18 03:45:58;;;;;;;5.87;3.07;;;21.40;55.20;;;23.77;43.05;101460.59;5108525;28;20215;-61
2022/06/18 03:48:32;;;;;;;2.53;2.33;;;21.40;55.30;;;23.81;43.02;101462.56;5095495;28;20193;-61
2022/06/18 03:50:59;;;;;;;2.77;2.53;;;21.40;55.30;;;23.83;42.93;101455.06;5094034;28;20311;-61
2022/06/18 03:53:27;;;;;;;3.40;2.50;;;21.40;55.40;;;23.86;43.09;101457.25;5094490;28;20276;-62
2022/06/18 03:55:54;;;;;;;3.20;2.90;;;21.40;55.40;;;23.86;43.03;101454.56;5110019;28;20203;-61
2022/06/18 03:58:22;;;;;;;4.37;3.17;;;21.40;55.40;;;23.90;42.88;101465.63;5094450;28;20226;-62
2022/06/18 04:00:51;;;;;;;4.13;2.70;;;21.40;55.50;;;23.93;42.92;101465.16;5093989;28;20323;-63
2022/06/18 04:03:19;;;;;;;3.57;3.23;;;21.40;55.40;;;23.92;43.14;101461.66;5094652;28;20211;-62
2022/06/18 04:05:46;;;;;;;4.40;2.80;;;21.40;55.60;;;24.00;42.98;101466.63;5094541;28;20196;-61
2022/06/18 04:08:20;;;;;;;3.60;3.03;;;21.50;55.50;;;24.04;42.93;101464.25;5094926;28;20193;-61
2022/06/18 04:10:48;;;;;;;4.90;2.93;;;21.50;55.70;;;24.05;43.20;101468.59;5094316;28;20287;-61
2022/06/18 04:13:16;;;;;;;4.10;3.70;;;21.50;55.80;;;24.09;43.12;101470.56;5094408;28;20197;-61
2022/06/18 04:15:43;;;;;;;3.43;3.13;;;21.60;55.70;;;24.10;43.10;101472.19;5095528;28;20220;-61
2022/06/18 04:18:15;;;;;;;5.73;3.17;;;21.60;55.90;;;24.12;42.92;101464.69;5094413;28;20213;-61
2022/06/18 04:20:43;;;;;;;3.63;3.27;;;21.60;55.90;;;24.16;42.64;101468.53;5110166;28;20233;-61
2022/06/18 04:23:11;;;;;;;4.37;2.73;;;21.60;55.80;;;24.19;42.82;101465.34;5093819;28;20223;-60
2022/06/18 04:25:39;;;;;;;4.30;2.83;;;21.70;56.00;;;24.26;42.96;101469.72;5094158;28;20192;-61
2022/06/18 04:28:08;;;;;;;3.13;2.83;;;21.70;55.90;;;24.28;42.74;101479.19;5093867;28;20188;-61
2022/06/18 04:30:35;;;;;;;3.40;3.10;;;21.70;55.90;;;24.37;42.75;101487.66;5093453;28;20192;-61
2022/06/18 04:33:03;;;;;;;4.10;3.80;;;21.80;55.90;;;24.44;42.73;101477.53;5112588;28;20191;-61
2022/06/18 04:35:33;;;;;;;3.67;3.30;;;21.80;56.00;;;24.50;42.49;101479.22;5112531;28;20287;-61
2022/06/18 04:38:01;;;;;;;5.33;3.93;;;21.90;56.70;;;24.54;42.95;101481.19;5113893;28;20208;-61
2022/06/18 04:40:32;;;;;;;2.63;2.43;;;21.90;55.90;;;24.62;42.62;101485.31;5113254;28;20198;-61
2022/06/18 04:43:20;;;;;;;3.63;3.33;;;22.00;55.80;;;24.71;42.29;101486.53;5113597;28;20192;-60
2022/06/18 04:45:48;;;;;;;3.23;2.93;;;22.00;55.80;;;24.80;41.99;101476.97;5113857;28;20195;-60
2022/06/18 04:48:15;;;;;;;2.80;2.60;;;22.10;55.70;;;24.90;42.55;101485.19;5105817;28;20601;-60
2022/06/18 04:50:44;;;;;;;3.33;3.03;;;22.10;55.70;;;24.99;41.83;101491.75;5092782;28;20204;-61
2022/06/18 04:53:12;;;;;;;2.87;2.67;;;22.20;55.60;;;25.07;41.95;101488.63;5093360;28;20192;-60
2022/06/18 04:55:39;;;;;;;4.17;3.13;;;22.30;55.60;;;25.14;41.72;101489.25;5093546;28;20670;-60
2022/06/18 04:58:06;;;;;;;3.50;3.20;;;22.30;55.60;;;25.19;42.14;101489.31;5093475;28;20215;-61
2022/06/18 05:00:38;;;;;;;3.93;3.07;;;22.40;55.50;;;25.25;41.35;101485.59;5093429;28;20249;-58
2022/06/18 05:03:05;;;;;;;3.40;3.10;;;22.40;55.50;;;25.32;41.47;101483.50;5096430;28;20649;-61
2022/06/18 05:05:33;;;;;;;3.90;3.43;;;22.50;55.60;;;25.38;41.87;101484.38;5113899;28;20195;-60
2022/06/18 05:08:02;;;;;;;6.03;3.17;;;22.50;55.70;;;25.42;42.02;101490.88;5113707;28;20184;-61
2022/06/18 05:10:29;;;;;;;4.40;3.20;;;22.60;55.70;;;25.46;41.29;101482.06;5113153;28;20663;-61
2022/06/18 05:12:57;;;;;;;4.63;3.00;;;22.60;55.60;;;25.51;41.76;101470.50;5113447;28;20194;-58
2022/06/18 05:15:25;;;;;;;4.10;3.70;;;22.70;55.70;;;25.57;41.99;101476.78;5113345;28;20207;-57
2022/06/18 05:17:53;;;;;;;6.83;4.03;;;22.70;55.70;;;25.63;41.88;101481.13;5114104;28;20207;-60
2022/06/18 05:20:23;;;;;;;3.80;3.43;;;22.80;55.70;;;25.68;41.39;101479.31;5098530;28;20542;-61
2022/06/18 05:22:51;;;;;;;3.27;2.97;;;22.80;55.60;;;25.75;41.76;101473.69;5093797;28;20242;-60
2022/06/18 05:25:20;;;;;;;6.20;3.80;;;22.90;55.60;;;25.80;41.92;101471.88;5093475;28;20195;-60
2022/06/18 05:27:48;;;;;;;4.17;3.67;;;22.90;55.60;;;25.87;41.78;101469.75;5093181;28;20187;-60
2022/06/18 05:30:21;;;;;;;7.40;3.47;;;23.00;55.60;;;25.94;41.12;101467.66;5093260;28;20275;-60
2022/06/18 05:32:49;;;;;;;4.40;3.37;;;23.10;55.60;;;26.00;41.16;101465.81;5092811;28;20239;-62
2022/06/18 05:35:16;;;;;;;3.70;3.37;;;23.10;55.50;;;26.06;41.65;101467.47;5094126;28;20276;-59
2022/06/18 05:37:46;;;;;;;3.70;3.40;;;23.20;55.40;;;26.15;41.63;101468.66;5093002;28;20204;-60
2022/06/18 05:40:14;;;;;;;8.13;4.00;;;23.30;55.40;;;26.22;40.85;101466.53;5092806;28;20605;-60
2022/06/18 05:42:43;;;;;;;3.90;3.60;;;23.30;55.40;;;26.29;41.46;101472.53;5092516;28;20740;-60
2022/06/18 05:45:11;;;;;;;4.40;3.97;;;23.40;55.40;;;26.35;40.91;101476.06;5093093;28;20197;-60
2022/06/18 05:47:39;;;;;;;4.50;3.57;;;23.50;55.30;;;26.41;41.31;101469.66;5094929;28;20192;-60
2022/06/18 05:50:12;;;;;;;4.53;4.00;;;23.50;55.30;;;26.45;40.92;101471.56;5096614;28;20189;-60
2022/06/18 05:52:40;;;;;;;5.17;3.80;;;23.60;55.30;;;26.52;41.16;101472.13;5114986;28;20215;-60
2022/06/18 05:55:08;;;;;;;5.03;4.23;;;23.60;55.20;;;26.59;40.90;101471.91;5117021;28;20188;-60
2022/06/18 05:57:46;;;;;;;5.13;4.17;;;23.70;55.30;;;26.61;41.22;101467.84;5116838;28;20310;-59
2022/06/18 06:00:18;;;;;;;6.97;4.43;;;23.80;55.30;;;26.70;41.20;101471.69;5117253;28;20255;-61
2022/06/18 06:02:45;;;;;;;5.10;4.13;;;23.80;55.30;;;26.76;40.94;101476.06;5116452;28;20688;-61
2022/06/18 06:05:13;;;;;;;6.30;5.00;;;23.90;55.30;;;26.78;40.95;101468.50;5117309;28;20200;-60
2022/06/18 06:07:42;;;;;;;7.30;4.23;;;24.00;55.20;;;26.82;40.63;101464.19;5115262;28;20196;-62
2022/06/18 06:13:10;;;;;;;5.07;4.57;;;24.00;55.40;;;26.96;40.76;101474.53;5115635;28;20214;-61
2022/06/18 06:15:38;;;;;;;4.13;3.73;;;24.10;55.50;;;27.06;40.82;101471.84;5117091;28;20183;-60
2022/06/18 06:18:09;;;;;;;6.43;4.87;;;24.10;55.20;;;27.14;40.97;101477.56;5116567;28;20689;-61
2022/06/18 06:20:41;;;;;;;6.77;5.00;;;24.30;55.40;;;27.19;40.66;101479.47;5116099;28;20286;-60
2022/06/18 06:23:10;;;;;;;7.23;5.80;;;24.30;55.20;;;27.21;40.70;101469.19;5114420;28;20196;-61
2022/06/18 06:25:39;;;;;;;5.67;5.00;;;24.40;55.20;;;27.21;40.67;101482.72;5116656;28;20195;-60
2022/06/18 06:28:14;;;;;;;9.37;5.80;;;24.40;55.20;;;27.24;40.57;101476.78;5116103;28;20185;-59
2022/06/18 06:30:42;;;;;;;6.80;5.40;;;24.40;55.20;;;27.29;40.64;101476.78;5115459;28;20191;-61
2022/06/18 06:33:36;;;;;;;7.00;5.50;;;24.50;55.10;;;27.33;40.88;101480.56;5116230;28;20249;-61
2022/06/18 06:36:05;;;;;;;5.73;4.97;;;24.50;55.00;;;27.38;40.71;101478.75;5115881;28;20183;-62
2022/06/18 06:38:32;;;;;;;9.00;4.80;;;24.60;55.10;;;27.47;40.49;101481.72;5114228;28;20215;-61
2022/06/18 06:41:00;;;;;;;7.20;5.10;;;24.60;55.10;;;27.53;40.59;101472.50;5115417;28;20704;-61
2022/06/18 06:43:29;;;;;;;9.50;5.30;;;24.70;55.20;;;27.63;40.72;101480.66;5114451;28;20568;-60
2022/06/18 06:45:56;;;;;;;6.93;5.53;;;24.70;55.10;;;27.71;40.14;101477.41;5115719;28;20188;-61
2022/06/18 06:48:23;;;;;;;6.63;5.70;;;24.80;55.00;;;27.77;40.37;101492.56;5115886;28;20180;-61
2022/06/18 06:50:51;;;;;;;7.90;5.83;;;24.90;54.90;;;27.81;40.13;101499.09;5115156;28;20291;-62
2022/06/18 06:53:30;;;;;;;6.60;5.27;;;24.90;54.90;;;27.87;40.34;101502.59;5115734;28;20249;-62
2022/06/18 06:58:46;;;;;;;9.50;6.23;;;25.10;55.00;;;28.00;40.44;101497.47;5083216;28;20310;-60
2022/06/18 07:01:14;;;;;;;11.37;5.77;;;25.10;55.00;;;28.06;40.24;101501.81;5114541;28;20214;-61
2022/06/18 07:03:42;;;;;;;9.10;6.53;;;25.20;54.80;;;28.11;40.18;101495.56;5115575;28;20192;-61
2022/06/18 07:06:10;;;;;;;6.17;5.53;;;25.30;54.70;;;28.18;40.15;101499.63;5115611;28;20196;-61
2022/06/18 07:08:37;;;;;;;5.57;5.07;;;25.30;54.70;;;28.29;40.02;101505.03;5115069;28;20341;-61
2022/06/18 07:11:05;;;;;;;6.57;5.83;;;25.40;54.60;;;28.40;39.95;101506.63;5113519;28;20596;-61
2022/06/18 07:13:33;;;;;;;8.13;5.57;;;25.50;54.50;;;28.52;39.27;101507.16;5114899;28;20187;-61
2022/06/18 07:16:05;;;;;;;6.30;5.77;;;25.60;54.50;;;28.62;39.43;101502.53;5115379;28;20203;-61
2022/06/18 07:18:35;;;;;;;6.33;5.20;;;25.60;54.30;;;28.68;39.67;101501.44;5115111;28;20613;-59
2022/06/18 07:21:07;;;;;;;6.50;5.53;;;25.80;54.10;;;28.76;39.39;101511.69;5114228;28;20204;-58
2022/06/18 07:23:35;;;;;;;6.50;5.70;;;25.80;54.00;;;28.85;39.21;101509.25;5114925;28;20215;-60
2022/06/18 07:26:03;;;;;;;6.70;5.93;;;25.90;54.00;;;28.96;39.38;101510.81;5113368;28;20199;-60
2022/06/18 07:28:31;;;;;;;6.43;5.80;;;26.00;53.80;;;29.05;38.91;101513.78;5114786;28;20194;-59
2022/06/18 07:30:59;;;;;;;7.00;6.27;;;26.10;53.70;;;29.13;38.79;101511.28;5114033;28;20682;-59
2022/06/18 07:33:32;;;;;;;8.90;5.70;;;26.10;53.60;;;29.22;39.19;101509.63;5114472;28;20192;-60
2022/06/18 07:36:00;;;;;;;7.13;6.50;;;26.20;53.60;;;29.31;39.05;101510.66;5114605;28;20542;-60
2022/06/18 07:38:27;;;;;;;7.70;6.27;;;26.30;53.60;;;29.39;39.00;101515.53;5114441;28;20222;-60
2022/06/18 07:40:58;;;;;;;7.20;5.30;;;26.40;54.00;;;29.48;38.71;101524.69;5113901;28;20636;-62
2022/06/18 07:43:33;;;;;;;6.93;6.23;;;26.50;53.10;;;29.60;38.32;101523.56;5112591;28;20557;-61
2022/06/18 07:46:03;;;;;;;7.90;7.00;;;26.60;53.40;;;29.70;38.67;101520.75;5114071;28;20198;-61
2022/06/18 07:48:32;;;;;;;7.00;5.97;;;26.70;52.90;;;29.75;38.50;101513.38;5114645;28;20188;-61
2022/06/18 07:51:00;;;;;;;6.27;5.67;;;26.80;52.80;;;29.82;37.93;101523.94;5113954;28;20222;-61
2022/06/18 07:53:28;;;;;;;8.43;6.17;;;26.80;52.50;;;29.87;37.95;101522.00;5114070;28;20219;-61
2022/06/18 07:55:56;;;;;;;6.27;5.50;;;26.90;52.40;;;29.93;37.85;101525.50;5114470;28;20184;-61
2022/06/18 07:58:26;;;;;;;7.90;6.83;;;26.90;52.20;;;29.96;37.89;101524.91;5105481;28;20220;-60
2022/06/18 08:00:55;;;;;;;8.77;6.40;;;27.00;52.20;;;29.98;37.87;101525.44;5092819;28;20273;-59
2022/06/18 08:03:24;;;;;;;6.73;5.23;;;27.00;52.10;;;30.06;37.66;101520.22;5093579;28;20581;-59
2022/06/18 08:06:14;;;;;;;9.70;7.03;;;27.10;52.10;;;30.17;38.11;101518.19;5093682;28;20724;-61
2022/06/18 08:08:41;;;;;;;10.53;6.43;;;27.20;52.10;;;30.27;37.54;101515.41;5093343;28;20548;-61
2022/06/18 08:11:14;;;;;;;10.27;6.63;;;27.30;52.10;;;30.38;37.55;101518.88;5092310;28;20209;-62
2022/06/18 08:13:42;;;;;;;6.73;6.07;;;27.30;51.90;;;30.48;37.18;101519.56;5095077;28;20230;-61
2022/06/18 08:16:13;;;;;;;9.70;7.07;;;27.40;51.80;;;30.59;36.91;101523.00;5093648;28;20189;-62
2022/06/18 08:18:42;;;;;;;7.73;6.97;;;27.50;51.60;;;30.89;36.64;101521.84;5092545;28;20334;-59
2022/06/18 08:21:17;;;;;;;9.43;5.57;;;27.60;51.60;;;31.59;36.38;101518.19;5092922;28;20212;-59
2022/06/18 08:23:45;;;;;;;10.70;6.50;;;27.80;51.50;;;32.60;35.06;101525.47;5093546;28;20653;-61
2022/06/18 08:26:13;;;;;;;10.47;7.70;;;28.20;51.30;;;33.79;33.31;101525.09;5093435;28;20711;-59
2022/06/18 08:28:41;;;;;;;11.77;10.33;;;28.70;50.50;;;34.83;31.07;101530.00;5092777;28;20252;-62
2022/06/18 08:31:10;;;;;;;8.47;7.33;;;29.30;48.90;;;35.81;30.07;101525.66;5093663;28;20274;-59
2022/06/18 08:33:38;;;;;;;8.50;6.90;;;30.00;47.30;;;36.64;28.85;101526.91;5093044;28;20216;-62
2022/06/18 08:36:10;;;;;;;7.50;6.37;;;30.60;46.00;;;37.41;28.07;101538.59;5092962;28;20268;-60
2022/06/18 08:38:41;;;;;;;7.67;6.10;;;31.20;44.60;;;38.09;26.96;101532.47;5093034;28;20286;-62
2022/06/18 08:41:30;;;;;;;6.53;5.90;;;31.90;43.40;;;38.92;26.17;101526.59;5092757;28;20217;-59
2022/06/18 08:45:00;;;;;;;8.27;7.13;;;32.50;42.00;;;39.71;25.05;101531.34;5093040;28;20275;-60
2022/06/18 08:48:00;;;;;;;7.75;6.45;;;33.20;40.40;;;40.31;23.47;101527.47;5032869;28;20209;-60
2022/06/18 08:50:51;;;;;;;6.88;6.15;;;33.90;37.80;;;40.65;22.75;101520.44;5047013;28;20228;-61
2022/06/18 08:53:42;;;;;;;7.95;6.28;;;34.40;36.60;;;40.90;22.89;101525.41;5103548;28;20214;-61
2022/06/18 08:56:18;;;;;;;6.50;5.70;;;34.70;35.10;;;41.20;22.96;101532.00;5113347;28;20180;-60
2022/06/18 08:59:00;;;;;;;8.10;5.53;;;34.90;34.60;;;41.49;22.14;101516.00;5112914;28;20208;-60
2022/06/18 09:01:37;;;;;;;6.15;5.55;;;35.20;34.40;;;41.89;21.76;101523.94;5113025;28;20310;-58
2022/06/18 09:04:22;;;;;;;8.48;5.38;;;35.50;34.10;;;42.32;21.90;101521.56;5111972;28;20260;-60
2022/06/18 09:07:15;;;;;;;6.63;5.85;;;35.80;33.70;;;42.67;20.98;101534.41;5112258;28;20199;-59
2022/06/18 09:10:01;;;;;;;6.05;4.93;;;36.00;32.30;;;42.73;20.37;101535.69;5112926;28;20188;-61
2022/06/18 09:12:35;;;;;;;10.77;6.10;;;36.30;31.60;;;42.87;20.07;101542.25;5112873;28;20290;-60
2022/06/18 09:15:17;;;;;;;6.30;5.22;;;36.50;31.20;;;43.01;20.31;101525.03;5113199;28;20207;-60
2022/06/18 09:17:51;;;;;;;5.75;5.18;;;36.70;31.60;;;43.28;20.27;101526.59;5112612;28;20194;-61
2022/06/18 09:20:27;;;;;;;8.30;4.97;;;36.90;31.20;;;43.43;19.95;101536.72;5112535;28;20214;-60
2022/06/18 09:23:07;;;;;;;8.45;5.70;;;37.10;30.40;;;43.61;19.39;101526.63;5116054;28;20191;-60
2022/06/18 09:25:43;;;;;;;5.72;5.22;;;37.20;30.10;;;43.91;19.71;101532.09;5117490;28;20202;-60
2022/06/18 09:28:20;;;;;;;8.07;5.35;;;37.40;30.10;;;44.28;19.30;101526.53;5117404;28;20197;-60
2022/06/18 09:30:52;;;;;;;7.25;5.00;;;37.60;29.90;;;44.60;18.31;101533.13;5117141;28;20760;-61
2022/06/18 09:33:28;;;;;;;6.72;5.82;;;37.70;29.70;;;44.54;18.13;101545.81;5117052;28;20194;-60
2022/06/18 09:36:01;;;;;;;7.60;5.53;;;37.80;29.00;;;44.30;18.36;101535.28;5098694;28;20192;-60
2022/06/18 09:38:36;;;;;;;6.88;5.40;;;37.90;29.00;;;44.01;18.74;101538.94;5095563;28;20238;-60
2022/06/18 09:41:10;;;;;;;7.63;6.15;;;37.90;29.00;;;43.81;18.35;101537.56;5096505;28;20299;-60
2022/06/18 09:43:50;;;;;;;6.82;4.93;;;37.80;28.40;;;43.77;18.77;101545.06;5096326;28;20268;-60
2022/06/18 09:46:25;;;;;;;5.95;5.20;;;37.80;28.80;;;43.95;18.70;101554.38;5096701;28;20650;-60
2022/06/18 09:48:53;;;;;;;6.80;5.38;;;37.80;28.50;;;44.05;18.57;101545.34;5095899;28;20600;-60
2022/06/18 09:51:33;;;;;;;10.75;5.38;;;37.80;28.40;;;44.30;18.22;101546.38;5096628;28;20235;-61
2022/06/18 09:54:04;;;;;;;7.93;4.60;;;37.90;28.90;;;44.43;18.18;101544.91;5094407;28;20249;-60
2022/06/18 09:56:35;;;;;;;8.63;5.35;;;37.90;28.20;;;44.38;18.14;101551.63;5095781;28;20211;-59
2022/06/18 09:59:12;;;;;;;10.88;5.75;;;38.00;28.20;;;44.49;17.92;101546.19;5095814;28;20204;-59
2022/06/18 10:01:45;;;;;;;9.70;4.28;;;38.00;28.00;;;44.73;18.25;101548.34;5094779;28;20300;-60
2022/06/18 10:07:06;;;;;;;9.25;5.68;;;38.20;28.00;;;44.98;17.35;101549.31;5096837;28;20196;-60
2022/06/18 10:09:42;;;;;;;6.70;4.50;;;38.30;27.90;;;45.26;17.04;101547.88;5095197;28;20177;-60
2022/06/18 10:12:20;;;;;;;8.07;5.43;;;38.40;27.90;;;45.47;17.13;101542.41;5094687;28;20231;-59
2022/06/18 10:14:54;;;;;;;7.05;5.07;;;38.60;27.80;;;45.59;17.16;101550.44;5095124;28;20203;-61
2022/06/18 10:17:44;;;;;;;10.05;5.07;;;38.70;27.80;;;45.44;17.58;101543.19;5096638;28;20283;-59
2022/06/18 10:20:25;;;;;;;8.90;5.53;;;38.70;27.50;;;45.12;17.23;101543.03;5095587;28;20300;-59
2022/06/18 10:23:06;;;;;;;6.82;5.25;;;38.80;27.60;;;45.01;17.40;101548.53;5095414;28;20189;-60
2022/06/18 10:25:43;;;;;;;8.23;4.30;;;38.80;27.50;;;44.93;17.20;101546.09;5095481;28;20192;-59
2022/06/18 10:28:27;;;;;;;6.60;4.90;;;38.70;27.60;;;44.95;17.94;101544.53;5095289;28;20188;-59
2022/06/18 10:31:08;;;;;;;5.45;4.63;;;38.70;27.60;;;44.98;18.17;101549.31;5109584;28;20211;-60
2022/06/18 10:33:58;;;;;;;6.43;4.53;;;38.70;28.30;;;45.12;17.86;101550.56;5113713;28;20196;-58
2022/06/18 10:36:40;;;;;;;5.63;3.33;;;38.70;27.40;;;45.12;17.36;101556.94;5116415;28;20653;-59
2022/06/18 10:39:19;;;;;;;4.40;4.03;;;38.70;27.40;;;44.95;17.77;101550.09;5115456;28;20194;-61
2022/06/18 10:42:10;;;;;;;5.03;3.92;;;38.70;27.30;;;44.64;17.22;101556.22;5115656;28;20286;-61
2022/06/18 10:45:06;;;;;;;4.82;3.50;;;38.60;27.10;;;44.00;18.42;101554.03;5116080;27;20199;-60
2022/06/18 10:47:39;;;;;;;5.35;4.32;;;38.50;27.40;;;43.12;18.62;101550.97;5073574;28;20216;-61
2022/06/18 10:50:11;;;;;;;7.53;4.22;;;38.20;27.30;;;41.95;20.07;101553.72;5074510;28;20532;-60